createdAt,value
2019-03-23T00:00:03.251Z,17.88
2019-03-23T00:05:57.974Z,16.13
2019-03-23T00:11:53.015Z,17.07
2019-03-23T00:17:47.986Z,23
2019-03-23T00:23:43.008Z,15.59
2019-03-23T00:29:38.003Z,22
2019-03-23T00:35:33.028Z,19.5
2019-03-23T00:41:28.048Z,15
2019-03-23T00:47:23.027Z,16.91
2019-03-23T00:53:18.063Z,16.21
2019-03-23T00:59:13.022Z,17.19
2019-03-23T01:05:08.032Z,22.24
2019-03-23T01:11:03.338Z,21.34
2019-03-23T01:16:58.028Z,23.53
2019-03-23T01:22:53.057Z,37.81
2019-03-23T01:28:47.994Z,18.9
2019-03-23T01:34:43.001Z,18.53
2019-03-23T01:40:38.028Z,18.03
2019-03-23T01:46:33.023Z,18.51
2019-03-23T01:52:28.082Z,15.21
2019-03-23T01:58:23.065Z,14.13
2019-03-23T02:04:18.067Z,16.36
2019-03-23T02:10:13.086Z,16.32
2019-03-23T02:16:08.067Z,18.61
2019-03-23T02:22:03.073Z,18.8
2019-03-23T02:27:58.087Z,16.27
2019-03-23T02:33:53.095Z,15.59
2019-03-23T02:39:48.119Z,17.26
2019-03-23T02:45:43.076Z,13.79
2019-03-23T02:51:39.685Z,13.96
2019-03-23T02:57:33.194Z,13.6
2019-03-23T03:03:28.141Z,16.69
2019-03-23T03:09:23.072Z,13.48
2019-03-23T03:15:18.074Z,14.23
2019-03-23T03:21:13.078Z,13.88
2019-03-23T03:27:08.405Z,17.39
2019-03-23T03:33:03.473Z,16.1
2019-03-23T03:38:58.136Z,15.31
2019-03-23T03:44:53.154Z,21.87
2019-03-23T03:50:48.104Z,21.01
2019-03-23T03:56:43.133Z,21.6
2019-03-23T04:02:38.135Z,15.61
2019-03-23T04:08:33.120Z,14.32
2019-03-23T04:14:28.099Z,14.28
2019-03-23T04:20:23.143Z,13.24
2019-03-23T04:26:18.132Z,12.58
2019-03-23T04:32:13.115Z,14.75
2019-03-23T04:38:08.425Z,12.67
2019-03-23T04:44:03.419Z,18.11
2019-03-23T04:49:58.120Z,29.16
2019-03-23T04:55:53.137Z,14.76
2019-03-23T05:01:48.197Z,17.04
2019-03-23T05:07:43.122Z,15.65
2019-03-23T05:13:38.151Z,14.89
2019-03-23T05:19:33.158Z,18.43
2019-03-23T05:25:28.199Z,14.93
2019-03-23T05:31:23.202Z,17.46
2019-03-23T05:37:18.142Z,17.59
2019-03-23T05:43:13.147Z,16.12
2019-03-23T05:49:08.494Z,20.09
2019-03-23T05:55:03.466Z,15.36
2019-03-23T06:00:58.321Z,22.19
2019-03-23T06:06:53.223Z,18.29
2019-03-23T06:12:48.183Z,17.65
2019-03-23T06:18:43.232Z,15.8
2019-03-23T06:24:38.183Z,18.51
2019-03-23T06:30:33.184Z,18.87
2019-03-23T06:36:28.253Z,19.57
2019-03-23T06:42:23.216Z,20.44
2019-03-23T06:48:18.324Z,23.13
2019-03-23T06:54:13.226Z,21.87
2019-03-23T07:00:08.226Z,25.37
2019-03-23T07:06:03.511Z,21.22
2019-03-23T07:11:58.214Z,16.78
2019-03-23T07:17:53.242Z,13.94
2019-03-23T07:23:48.231Z,18.33
2019-03-23T07:29:43.223Z,17.46
2019-03-23T07:35:38.245Z,19.66
2019-03-23T07:41:33.227Z,13.02
2019-03-23T07:47:28.291Z,12.63
2019-03-23T07:53:23.243Z,15.28
2019-03-23T07:59:18.322Z,19.32
2019-03-23T08:05:13.272Z,17.89
2019-03-23T08:11:08.546Z,19.33
2019-03-23T08:17:03.551Z,19.33
2019-03-23T08:22:58.262Z,13.7
2019-03-23T08:28:53.282Z,13.36
2019-03-23T08:34:48.319Z,16.15
2019-03-23T08:40:43.275Z,16.46
2019-03-23T08:46:38.285Z,17.73
2019-03-23T08:52:33.285Z,19.04
2019-03-23T08:58:28.304Z,17.94
2019-03-23T09:04:23.269Z,46.34
2019-03-23T09:10:18.288Z,22.04
2019-03-23T09:16:13.313Z,16.21
2019-03-23T09:22:08.626Z,19.43
2019-03-23T09:28:03.603Z,16.32
2019-03-23T09:33:58.329Z,22.34
2019-03-23T09:39:53.327Z,23.41
2019-03-23T09:45:48.308Z,15.54
2019-03-23T09:51:43.331Z,10.26
2019-03-23T09:57:38.312Z,18.33
2019-03-23T10:03:33.361Z,11.02
2019-03-23T10:09:28.321Z,13.49
2019-03-23T10:15:23.318Z,12.78
2019-03-23T10:21:18.373Z,10.92
2019-03-23T10:27:13.402Z,11.36
2019-03-23T10:33:08.620Z,7.83
2019-03-23T10:39:03.528Z,10.81
2019-03-23T10:44:58.364Z,8
2019-03-23T10:50:53.341Z,9.15
2019-03-23T10:56:48.371Z,6.17
2019-03-23T11:02:43.346Z,7.11
2019-03-23T11:08:38.403Z,5.9
2019-03-23T11:14:33.368Z,6.42
2019-03-23T11:20:28.384Z,5.3
2019-03-23T11:26:23.370Z,4.95
2019-03-23T11:32:18.375Z,5
2019-03-23T11:38:13.387Z,6.45
2019-03-23T11:44:08.357Z,5.7
2019-03-23T11:50:03.373Z,5.08
2019-03-23T12:01:53.388Z,6.98
2019-03-23T12:01:53.477Z,8.39
2019-03-23T12:07:48.425Z,6.55
2019-03-23T12:13:43.432Z,8.13
2019-03-23T12:19:38.437Z,7.73
2019-03-23T12:25:33.469Z,6.16
2019-03-23T12:31:28.397Z,9.26
2019-03-23T12:37:23.459Z,6.96
2019-03-23T12:43:18.453Z,7.1
2019-03-23T12:55:08.417Z,5.8
2019-03-23T12:55:08.469Z,8.35
2019-03-23T13:01:03.478Z,14.62
2019-03-23T13:06:58.479Z,8.77
2019-03-23T13:12:53.452Z,7.79
2019-03-23T13:18:48.442Z,5.18
2019-03-23T13:24:43.529Z,6.73
2019-03-23T13:30:38.503Z,5.22
2019-03-23T13:36:33.536Z,5.91
2019-03-23T13:42:28.542Z,5.88
2019-03-23T13:48:23.475Z,4.72
2019-03-23T13:54:18.459Z,4.38
2019-03-23T14:00:13.638Z,5.37
2019-03-23T14:06:08.813Z,5.56
2019-03-23T14:12:03.504Z,4.47
2019-03-23T14:17:58.464Z,4.68
2019-03-23T14:23:55.193Z,5.07
2019-03-23T14:29:48.524Z,4.8
2019-03-23T14:35:43.515Z,6.76
2019-03-23T14:41:38.495Z,5.61
2019-03-23T14:47:33.500Z,7.22
2019-03-23T14:53:28.502Z,7.13
2019-03-23T14:59:23.496Z,6.92
2019-03-23T15:05:18.516Z,5.31
2019-03-23T15:11:13.513Z,7.87
2019-03-23T15:17:08.579Z,6.42
2019-03-23T15:23:03.524Z,8.75
2019-03-23T15:28:58.531Z,8.41
2019-03-23T15:34:53.514Z,11.7
2019-03-23T15:40:48.503Z,7.25
2019-03-23T15:46:43.545Z,7.88
2019-03-23T15:52:38.526Z,6.5
2019-03-23T15:58:33.677Z,5.56
2019-03-23T16:04:28.595Z,5.69
2019-03-23T16:10:23.606Z,6.91
2019-03-23T16:16:18.561Z,6.37
2019-03-23T16:22:13.557Z,8.74
2019-03-23T16:28:08.867Z,9
2019-03-23T16:34:03.581Z,12.59
2019-03-23T16:39:58.582Z,7.34
2019-03-23T16:45:53.628Z,6.09
2019-03-23T16:51:48.608Z,8.96
2019-03-23T16:57:43.602Z,5.7
2019-03-23T17:03:38.607Z,7.61
2019-03-23T17:09:33.674Z,7.04
2019-03-23T17:15:28.601Z,9.12
2019-03-23T17:21:23.616Z,7.42
2019-03-23T17:27:18.675Z,8.81
2019-03-23T17:33:13.627Z,7.48
2019-03-23T17:39:08.896Z,17.67
2019-03-23T17:45:03.638Z,13.24
2019-03-23T17:50:58.632Z,11.9
2019-03-23T17:56:54.064Z,8.23
2019-03-23T18:02:48.629Z,10.04
2019-03-23T18:08:43.612Z,8.72
2019-03-23T18:14:38.647Z,10.31
2019-03-23T18:20:33.667Z,10.92
2019-03-23T18:26:28.644Z,12.11
2019-03-23T18:32:23.644Z,8.12
2019-03-23T18:38:18.663Z,14.13
2019-03-23T18:44:16.277Z,10
2019-03-23T18:50:09.711Z,11.6
2019-03-23T18:56:03.654Z,14.39
2019-03-23T19:01:58.653Z,17.18
2019-03-23T19:07:53.916Z,8.91
2019-03-23T19:13:48.677Z,9.97
2019-03-23T19:19:43.729Z,11.88
2019-03-23T19:25:38.698Z,10.52
2019-03-23T19:31:33.695Z,11.21
2019-03-23T19:37:28.690Z,8.23
2019-03-23T19:43:23.724Z,13.22
2019-03-23T19:49:18.690Z,11.63
2019-03-23T19:55:14.036Z,13.32
2019-03-23T20:01:09.044Z,11.81
2019-03-23T20:07:03.725Z,10.03
2019-03-23T20:12:58.720Z,14.81
2019-03-23T20:18:53.749Z,11.07
2019-03-23T20:24:48.724Z,11.15
2019-03-23T20:30:43.727Z,11.36
2019-03-23T20:36:38.798Z,12.65
2019-03-23T20:42:33.738Z,12.01
2019-03-23T20:48:28.751Z,12.1
2019-03-23T20:54:23.746Z,13.8
2019-03-23T21:00:18.730Z,14.78
2019-03-23T21:06:13.761Z,11.5
2019-03-23T21:12:08.745Z,15.54
2019-03-23T21:18:03.774Z,11.83
2019-03-23T21:23:58.776Z,11.32
2019-03-23T21:29:53.756Z,15.2
2019-03-23T21:35:48.769Z,16.24
2019-03-23T21:41:43.776Z,15.08
2019-03-23T21:47:38.761Z,14.84
2019-03-23T21:53:33.838Z,16.39
2019-03-23T21:59:28.780Z,15.11
2019-03-23T22:05:23.796Z,14.83
2019-03-23T22:11:18.839Z,15.36
2019-03-23T22:17:14.144Z,14.74
2019-03-23T22:23:09.095Z,13.2
2019-03-23T22:29:03.788Z,18.68
2019-03-23T22:34:58.787Z,19.53
2019-03-23T22:40:53.838Z,13.55
2019-03-23T22:46:48.805Z,16.56
2019-03-23T22:52:43.847Z,14.64
2019-03-23T22:58:38.829Z,18.7
2019-03-23T23:04:33.827Z,18.5
2019-03-23T23:10:28.847Z,25.86
2019-03-23T23:16:23.881Z,19.23
2019-03-23T23:22:18.870Z,16.17
2019-03-23T23:28:13.873Z,14.08
2019-03-23T23:34:09.182Z,12.96
2019-03-23T23:40:03.870Z,18.9
2019-03-23T23:45:58.880Z,14
2019-03-23T23:51:53.843Z,15.12
2019-03-23T23:57:48.930Z,17.48
